sensor_id;sensor_type;location;lat;lon;timestamp;P1;durP1;ratioP1;P2;durP2;ratioP2
75071;SDS011;63651;55.728;38.022;2022-12-18T00:02:07;4.47;;;3.40;;
75071;SDS011;63651;55.728;38.022;2022-12-18T00:07:08;4.50;;;3.35;;
75071;SDS011;63651;55.728;38.022;2022-12-18T00:12:09;3.72;;;2.88;;
75071;SDS011;63651;55.728;38.022;2022-12-18T00:17:10;3.92;;;3.03;;
75071;SDS011;63651;55.728;38.022;2022-12-18T00:22:11;4.68;;;3.20;;
75071;SDS011;63651;55.728;38.022;2022-12-18T00:27:12;4.95;;;3.05;;
75071;SDS011;63651;55.728;38.022;2022-12-18T00:32:13;3.70;;;2.83;;
75071;SDS011;63651;55.728;38.022;2022-12-18T00:37:15;4.55;;;3.00;;
75071;SDS011;63651;55.728;38.022;2022-12-18T00:42:16;3.55;;;2.80;;
75071;SDS011;63651;55.728;38.022;2022-12-18T00:47:35;3.70;;;2.95;;
75071;SDS011;63651;55.728;38.022;2022-12-18T00:52:36;3.50;;;3.20;;
75071;SDS011;63651;55.728;38.022;2022-12-18T00:57:37;3.65;;;2.75;;
75071;SDS011;63651;55.728;38.022;2022-12-18T01:02:39;4.10;;;3.03;;
75071;SDS011;63651;55.728;38.022;2022-12-18T01:07:40;3.45;;;2.72;;
75071;SDS011;63651;55.728;38.022;2022-12-18T01:12:42;3.72;;;2.92;;
75071;SDS011;63651;55.728;38.022;2022-12-18T01:17:43;4.53;;;3.15;;
75071;SDS011;63651;55.728;38.022;2022-12-18T01:22:44;3.33;;;2.70;;
75071;SDS011;63651;55.728;38.022;2022-12-18T01:27:45;3.72;;;2.85;;
75071;SDS011;63651;55.728;38.022;2022-12-18T01:32:46;4.65;;;3.47;;
75071;SDS011;63651;55.728;38.022;2022-12-18T01:37:47;3.42;;;2.78;;
75071;SDS011;63651;55.728;38.022;2022-12-18T01:42:52;3.75;;;3.20;;
75071;SDS011;63651;55.728;38.022;2022-12-18T01:47:58;3.60;;;2.80;;
75071;SDS011;63651;55.728;38.022;2022-12-18T01:58:14;3.80;;;2.95;;
75071;SDS011;63651;55.728;38.022;2022-12-18T02:03:16;3.50;;;2.88;;
75071;SDS011;63651;55.728;38.022;2022-12-18T02:08:28;4.82;;;2.95;;
75071;SDS011;63651;55.728;38.022;2022-12-18T02:19:28;4.00;;;3.13;;
75071;SDS011;63651;55.728;38.022;2022-12-18T02:29:50;4.68;;;3.10;;
75071;SDS011;63651;55.728;38.022;2022-12-18T02:34:53;3.83;;;2.50;;
75071;SDS011;63651;55.728;38.022;2022-12-18T02:39:57;4.07;;;3.10;;
75071;SDS011;63651;55.728;38.022;2022-12-18T02:45:00;3.47;;;2.83;;
75071;SDS011;63651;55.728;38.022;2022-12-18T02:50:07;3.70;;;3.08;;
75071;SDS011;63651;55.728;38.022;2022-12-18T02:55:39;3.65;;;3.10;;
75071;SDS011;63651;55.728;38.022;2022-12-18T03:00:54;3.70;;;2.90;;
75071;SDS011;63651;55.728;38.022;2022-12-18T03:11:23;3.63;;;2.83;;
75071;SDS011;63651;55.728;38.022;2022-12-18T03:16:47;4.13;;;2.97;;
75071;SDS011;63651;55.728;38.022;2022-12-18T03:21:54;3.17;;;2.75;;
75071;SDS011;63651;55.728;38.022;2022-12-18T03:26:59;6.45;;;2.85;;
75071;SDS011;63651;55.728;38.022;2022-12-18T03:32:07;3.33;;;2.95;;
75071;SDS011;63651;55.728;38.022;2022-12-18T03:37:12;4.40;;;2.90;;
75071;SDS011;63651;55.728;38.022;2022-12-18T03:42:20;3.65;;;2.63;;
75071;SDS011;63651;55.728;38.022;2022-12-18T03:52:52;4.30;;;3.22;;
75071;SDS011;63651;55.728;38.022;2022-12-18T03:58:01;3.53;;;2.72;;
75071;SDS011;63651;55.728;38.022;2022-12-18T04:03:04;4.25;;;2.97;;
75071;SDS011;63651;55.728;38.022;2022-12-18T04:08:06;4.53;;;3.25;;
75071;SDS011;63651;55.728;38.022;2022-12-18T04:13:08;3.78;;;2.88;;
75071;SDS011;63651;55.728;38.022;2022-12-18T04:18:09;4.40;;;3.00;;
75071;SDS011;63651;55.728;38.022;2022-12-18T04:23:10;4.15;;;3.13;;
75071;SDS011;63651;55.728;38.022;2022-12-18T04:28:12;3.95;;;3.17;;
75071;SDS011;63651;55.728;38.022;2022-12-18T04:33:13;3.80;;;2.90;;
75071;SDS011;63651;55.728;38.022;2022-12-18T04:38:14;3.88;;;3.03;;
75071;SDS011;63651;55.728;38.022;2022-12-18T04:43:16;4.25;;;3.20;;
75071;SDS011;63651;55.728;38.022;2022-12-18T04:48:17;3.80;;;2.67;;
75071;SDS011;63651;55.728;38.022;2022-12-18T04:53:18;3.20;;;2.50;;
75071;SDS011;63651;55.728;38.022;2022-12-18T04:58:19;5.40;;;3.10;;
75071;SDS011;63651;55.728;38.022;2022-12-18T05:03:20;3.63;;;2.55;;
75071;SDS011;63651;55.728;38.022;2022-12-18T05:08:21;4.45;;;2.90;;
75071;SDS011;63651;55.728;38.022;2022-12-18T05:13:22;3.78;;;3.00;;
75071;SDS011;63651;55.728;38.022;2022-12-18T05:18:23;4.07;;;2.92;;
75071;SDS011;63651;55.728;38.022;2022-12-18T05:23:25;4.20;;;3.13;;
75071;SDS011;63651;55.728;38.022;2022-12-18T05:28:27;3.78;;;3.08;;
75071;SDS011;63651;55.728;38.022;2022-12-18T05:33:29;3.47;;;2.40;;
75071;SDS011;63651;55.728;38.022;2022-12-18T05:38:34;4.35;;;3.30;;
75071;SDS011;63651;55.728;38.022;2022-12-18T05:43:38;3.65;;;2.67;;
75071;SDS011;63651;55.728;38.022;2022-12-18T05:48:40;3.55;;;2.83;;
75071;SDS011;63651;55.728;38.022;2022-12-18T05:53:41;4.53;;;2.90;;
75071;SDS011;63651;55.728;38.022;2022-12-18T05:58:43;3.92;;;3.13;;
75071;SDS011;63651;55.728;38.022;2022-12-18T06:03:44;4.20;;;2.65;;
75071;SDS011;63651;55.728;38.022;2022-12-18T06:08:46;3.67;;;2.60;;
75071;SDS011;63651;55.728;38.022;2022-12-18T06:13:50;4.05;;;2.97;;
75071;SDS011;63651;55.728;38.022;2022-12-18T06:18:55;4.93;;;3.30;;
75071;SDS011;63651;55.728;38.022;2022-12-18T06:24:00;3.38;;;2.83;;
75071;SDS011;63651;55.728;38.022;2022-12-18T06:29:01;3.55;;;2.90;;
75071;SDS011;63651;55.728;38.022;2022-12-18T06:34:03;3.05;;;2.65;;
75071;SDS011;63651;55.728;38.022;2022-12-18T06:39:05;3.58;;;2.97;;
75071;SDS011;63651;55.728;38.022;2022-12-18T06:44:06;4.53;;;3.13;;
75071;SDS011;63651;55.728;38.022;2022-12-18T06:49:07;4.18;;;2.97;;
75071;SDS011;63651;55.728;38.022;2022-12-18T06:54:09;3.75;;;2.90;;
75071;SDS011;63651;55.728;38.022;2022-12-18T06:59:10;4.22;;;3.33;;
75071;SDS011;63651;55.728;38.022;2022-12-18T07:04:12;4.22;;;3.20;;
75071;SDS011;63651;55.728;38.022;2022-12-18T07:09:13;4.70;;;2.83;;
75071;SDS011;63651;55.728;38.022;2022-12-18T07:14:14;3.92;;;2.90;;
75071;SDS011;63651;55.728;38.022;2022-12-18T07:19:15;3.53;;;2.80;;
75071;SDS011;63651;55.728;38.022;2022-12-18T07:24:16;4.95;;;3.15;;
75071;SDS011;63651;55.728;38.022;2022-12-18T07:29:17;4.57;;;3.50;;
75071;SDS011;63651;55.728;38.022;2022-12-18T07:34:18;3.53;;;2.65;;
75071;SDS011;63651;55.728;38.022;2022-12-18T07:39:20;4.18;;;3.20;;
75071;SDS011;63651;55.728;38.022;2022-12-18T07:44:21;4.65;;;3.10;;
75071;SDS011;63651;55.728;38.022;2022-12-18T07:49:22;3.83;;;2.50;;
75071;SDS011;63651;55.728;38.022;2022-12-18T07:54:23;4.55;;;3.10;;
75071;SDS011;63651;55.728;38.022;2022-12-18T07:59:25;4.30;;;3.22;;
75071;SDS011;63651;55.728;38.022;2022-12-18T08:04:26;4.57;;;2.95;;
75071;SDS011;63651;55.728;38.022;2022-12-18T08:09:27;4.93;;;2.90;;
75071;SDS011;63651;55.728;38.022;2022-12-18T08:14:28;3.88;;;3.00;;
75071;SDS011;63651;55.728;38.022;2022-12-18T08:19:29;5.63;;;3.15;;
75071;SDS011;63651;55.728;38.022;2022-12-18T08:24:30;5.28;;;3.13;;
75071;SDS011;63651;55.728;38.022;2022-12-18T08:29:31;6.80;;;3.00;;
75071;SDS011;63651;55.728;38.022;2022-12-18T08:34:32;4.68;;;3.20;;
75071;SDS011;63651;55.728;38.022;2022-12-18T08:39:33;5.13;;;3.60;;
75071;SDS011;63651;55.728;38.022;2022-12-18T08:44:35;3.42;;;2.70;;
75071;SDS011;63651;55.728;38.022;2022-12-18T08:49:39;4.03;;;3.08;;
75071;SDS011;63651;55.728;38.022;2022-12-18T08:54:41;4.78;;;3.15;;
75071;SDS011;63651;55.728;38.022;2022-12-18T08:59:42;3.88;;;3.22;;
75071;SDS011;63651;55.728;38.022;2022-12-18T09:04:43;4.78;;;2.88;;
75071;SDS011;63651;55.728;38.022;2022-12-18T09:09:44;3.45;;;2.50;;
75071;SDS011;63651;55.728;38.022;2022-12-18T09:14:45;3.33;;;2.30;;
75071;SDS011;63651;55.728;38.022;2022-12-18T09:19:47;4.15;;;2.50;;
75071;SDS011;63651;55.728;38.022;2022-12-18T09:24:48;3.90;;;2.92;;
75071;SDS011;63651;55.728;38.022;2022-12-18T09:29:49;4.85;;;2.88;;
75071;SDS011;63651;55.728;38.022;2022-12-18T09:34:50;3.90;;;3.15;;
75071;SDS011;63651;55.728;38.022;2022-12-18T09:39:51;4.20;;;3.03;;
75071;SDS011;63651;55.728;38.022;2022-12-18T09:44:53;3.92;;;2.53;;
75071;SDS011;63651;55.728;38.022;2022-12-18T09:50:04;5.63;;;3.03;;
75071;SDS011;63651;55.728;38.022;2022-12-18T09:55:31;3.50;;;2.85;;
75071;SDS011;63651;55.728;38.022;2022-12-18T10:00:37;5.72;;;2.83;;
75071;SDS011;63651;55.728;38.022;2022-12-18T10:27:14;3.53;;;2.40;;
75071;SDS011;63651;55.728;38.022;2022-12-18T10:32:18;3.45;;;2.15;;
75071;SDS011;63651;55.728;38.022;2022-12-18T10:37:28;3.10;;;2.20;;
75071;SDS011;63651;55.728;38.022;2022-12-18T10:42:30;3.33;;;2.10;;
75071;SDS011;63651;55.728;38.022;2022-12-18T10:47:32;4.60;;;2.80;;
75071;SDS011;63651;55.728;38.022;2022-12-18T10:52:35;3.85;;;1.75;;
75071;SDS011;63651;55.728;38.022;2022-12-18T10:57:39;2.63;;;1.65;;
75071;SDS011;63651;55.728;38.022;2022-12-18T11:02:42;4.18;;;1.98;;
75071;SDS011;63651;55.728;38.022;2022-12-18T11:07:47;5.88;;;2.40;;
75071;SDS011;63651;55.728;38.022;2022-12-18T11:12:50;6.68;;;2.85;;
75071;SDS011;63651;55.728;38.022;2022-12-18T11:17:52;4.05;;;2.75;;
75071;SDS011;63651;55.728;38.022;2022-12-18T11:22:55;4.10;;;2.70;;
75071;SDS011;63651;55.728;38.022;2022-12-18T11:27:59;4.40;;;2.90;;
75071;SDS011;63651;55.728;38.022;2022-12-18T11:33:23;3.33;;;2.33;;
75071;SDS011;63651;55.728;38.022;2022-12-18T11:43:55;8.90;;;2.75;;
75071;SDS011;63651;55.728;38.022;2022-12-18T11:54:26;3.75;;;2.60;;
75071;SDS011;63651;55.728;38.022;2022-12-18T11:59:37;3.33;;;2.33;;
75071;SDS011;63651;55.728;38.022;2022-12-18T12:15:39;4.13;;;2.30;;
75071;SDS011;63651;55.728;38.022;2022-12-18T12:26:03;3.35;;;2.28;;
75071;SDS011;63651;55.728;38.022;2022-12-18T12:41:31;4.35;;;2.40;;
75071;SDS011;63651;55.728;38.022;2022-12-18T12:47:02;2.70;;;1.90;;
75071;SDS011;63651;55.728;38.022;2022-12-18T12:52:36;3.70;;;2.10;;
75071;SDS011;63651;55.728;38.022;2022-12-18T13:08:26;3.85;;;2.33;;
75071;SDS011;63651;55.728;38.022;2022-12-18T13:13:29;3.15;;;2.30;;
75071;SDS011;63651;55.728;38.022;2022-12-18T13:18:53;3.20;;;2.22;;
75071;SDS011;63651;55.728;38.022;2022-12-18T13:24:14;3.65;;;2.13;;
75071;SDS011;63651;55.728;38.022;2022-12-18T13:34:46;3.10;;;2.33;;
75071;SDS011;63651;55.728;38.022;2022-12-18T13:39:47;3.17;;;2.08;;
75071;SDS011;63651;55.728;38.022;2022-12-18T13:44:48;2.80;;;2.00;;
75071;SDS011;63651;55.728;38.022;2022-12-18T13:49:49;2.75;;;1.98;;
75071;SDS011;63651;55.728;38.022;2022-12-18T13:54:52;2.65;;;2.10;;
75071;SDS011;63651;55.728;38.022;2022-12-18T13:59:58;2.50;;;2.03;;
75071;SDS011;63651;55.728;38.022;2022-12-18T14:05:23;2.60;;;1.80;;
75071;SDS011;63651;55.728;38.022;2022-12-18T14:10:26;2.60;;;1.95;;
75071;SDS011;63651;55.728;38.022;2022-12-18T14:15:34;3.67;;;2.45;;
75071;SDS011;63651;55.728;38.022;2022-12-18T14:20:40;4.57;;;2.42;;
75071;SDS011;63651;55.728;38.022;2022-12-18T14:25:48;4.10;;;2.67;;
75071;SDS011;63651;55.728;38.022;2022-12-18T14:30:49;4.13;;;2.95;;
75071;SDS011;63651;55.728;38.022;2022-12-18T14:35:54;5.45;;;3.60;;
75071;SDS011;63651;55.728;38.022;2022-12-18T14:41:02;6.57;;;3.50;;
75071;SDS011;63651;55.728;38.022;2022-12-18T14:46:05;7.00;;;3.70;;
75071;SDS011;63651;55.728;38.022;2022-12-18T14:51:25;6.38;;;4.10;;
75071;SDS011;63651;55.728;38.022;2022-12-18T14:56:34;9.38;;;5.32;;
75071;SDS011;63651;55.728;38.022;2022-12-18T15:01:38;11.40;;;6.03;;
75071;SDS011;63651;55.728;38.022;2022-12-18T15:06:47;9.13;;;5.50;;
75071;SDS011;63651;55.728;38.022;2022-12-18T15:11:48;9.65;;;5.38;;
75071;SDS011;63651;55.728;38.022;2022-12-18T15:16:52;7.47;;;4.30;;
75071;SDS011;63651;55.728;38.022;2022-12-18T15:21:57;8.73;;;4.75;;
75071;SDS011;63651;55.728;38.022;2022-12-18T15:26:59;9.75;;;5.53;;
75071;SDS011;63651;55.728;38.022;2022-12-18T15:32:02;7.03;;;4.68;;
75071;SDS011;63651;55.728;38.022;2022-12-18T15:37:06;6.68;;;5.00;;
75071;SDS011;63651;55.728;38.022;2022-12-18T15:42:08;8.73;;;4.93;;
75071;SDS011;63651;55.728;38.022;2022-12-18T15:47:29;7.75;;;4.13;;
75071;SDS011;63651;55.728;38.022;2022-12-18T15:52:31;7.15;;;4.05;;
75071;SDS011;63651;55.728;38.022;2022-12-18T15:57:41;6.43;;;4.03;;
75071;SDS011;63651;55.728;38.022;2022-12-18T16:02:42;6.28;;;3.75;;
75071;SDS011;63651;55.728;38.022;2022-12-18T16:07:43;6.00;;;3.58;;
75071;SDS011;63651;55.728;38.022;2022-12-18T16:12:45;5.50;;;3.47;;
75071;SDS011;63651;55.728;38.022;2022-12-18T16:17:46;5.22;;;3.03;;
75071;SDS011;63651;55.728;38.022;2022-12-18T16:22:48;5.80;;;3.42;;
75071;SDS011;63651;55.728;38.022;2022-12-18T16:27:49;4.25;;;3.22;;
75071;SDS011;63651;55.728;38.022;2022-12-18T16:32:51;5.28;;;3.63;;
75071;SDS011;63651;55.728;38.022;2022-12-18T16:37:52;4.75;;;2.70;;
75071;SDS011;63651;55.728;38.022;2022-12-18T16:42:55;4.72;;;2.67;;
75071;SDS011;63651;55.728;38.022;2022-12-18T16:47:56;4.60;;;3.15;;
75071;SDS011;63651;55.728;38.022;2022-12-18T16:52:58;4.78;;;3.35;;
75071;SDS011;63651;55.728;38.022;2022-12-18T16:58:00;5.47;;;3.63;;
75071;SDS011;63651;55.728;38.022;2022-12-18T17:03:01;5.50;;;3.30;;
75071;SDS011;63651;55.728;38.022;2022-12-18T17:08:02;3.75;;;3.03;;
75071;SDS011;63651;55.728;38.022;2022-12-18T17:13:03;3.67;;;2.70;;
75071;SDS011;63651;55.728;38.022;2022-12-18T17:18:04;3.20;;;2.67;;
75071;SDS011;63651;55.728;38.022;2022-12-18T17:23:05;4.13;;;2.63;;
75071;SDS011;63651;55.728;38.022;2022-12-18T17:28:06;3.22;;;2.40;;
75071;SDS011;63651;55.728;38.022;2022-12-18T17:33:09;3.15;;;2.22;;
75071;SDS011;63651;55.728;38.022;2022-12-18T17:38:10;4.22;;;2.60;;
75071;SDS011;63651;55.728;38.022;2022-12-18T17:43:11;3.92;;;2.28;;
75071;SDS011;63651;55.728;38.022;2022-12-18T17:48:12;4.03;;;2.10;;
75071;SDS011;63651;55.728;38.022;2022-12-18T17:53:13;4.25;;;3.15;;
75071;SDS011;63651;55.728;38.022;2022-12-18T17:58:14;3.65;;;2.90;;
75071;SDS011;63651;55.728;38.022;2022-12-18T18:03:15;3.78;;;2.90;;
75071;SDS011;63651;55.728;38.022;2022-12-18T18:08:17;4.55;;;2.88;;
75071;SDS011;63651;55.728;38.022;2022-12-18T18:13:19;5.10;;;2.90;;
75071;SDS011;63651;55.728;38.022;2022-12-18T18:18:44;3.97;;;2.85;;
75071;SDS011;63651;55.728;38.022;2022-12-18T18:23:45;5.65;;;2.80;;
75071;SDS011;63651;55.728;38.022;2022-12-18T18:28:46;4.07;;;2.88;;
75071;SDS011;63651;55.728;38.022;2022-12-18T18:33:47;4.60;;;3.25;;
75071;SDS011;63651;55.728;38.022;2022-12-18T18:38:49;4.65;;;2.75;;
75071;SDS011;63651;55.728;38.022;2022-12-18T18:43:54;3.80;;;2.80;;
75071;SDS011;63651;55.728;38.022;2022-12-18T18:48:57;3.78;;;2.75;;
75071;SDS011;63651;55.728;38.022;2022-12-18T18:53:58;3.88;;;2.83;;
75071;SDS011;63651;55.728;38.022;2022-12-18T18:58:59;3.60;;;2.55;;
75071;SDS011;63651;55.728;38.022;2022-12-18T19:04:00;4.25;;;2.78;;
75071;SDS011;63651;55.728;38.022;2022-12-18T19:09:02;3.70;;;2.90;;
75071;SDS011;63651;55.728;38.022;2022-12-18T19:14:06;4.70;;;2.70;;
75071;SDS011;63651;55.728;38.022;2022-12-18T19:19:09;3.63;;;2.35;;
75071;SDS011;63651;55.728;38.022;2022-12-18T19:24:10;3.53;;;2.47;;
75071;SDS011;63651;55.728;38.022;2022-12-18T19:29:11;3.45;;;2.60;;
75071;SDS011;63651;55.728;38.022;2022-12-18T19:34:14;3.67;;;2.80;;
75071;SDS011;63651;55.728;38.022;2022-12-18T19:39:16;4.97;;;3.15;;
75071;SDS011;63651;55.728;38.022;2022-12-18T19:44:18;4.32;;;2.70;;
75071;SDS011;63651;55.728;38.022;2022-12-18T19:49:19;3.72;;;2.78;;
75071;SDS011;63651;55.728;38.022;2022-12-18T19:54:20;4.30;;;2.83;;
75071;SDS011;63651;55.728;38.022;2022-12-18T19:59:21;3.28;;;2.50;;
75071;SDS011;63651;55.728;38.022;2022-12-18T20:04:22;3.85;;;2.60;;
75071;SDS011;63651;55.728;38.022;2022-12-18T20:09:23;3.50;;;2.22;;
75071;SDS011;63651;55.728;38.022;2022-12-18T20:14:24;3.60;;;2.25;;
75071;SDS011;63651;55.728;38.022;2022-12-18T20:19:25;4.07;;;2.70;;
75071;SDS011;63651;55.728;38.022;2022-12-18T20:24:27;4.30;;;2.28;;
75071;SDS011;63651;55.728;38.022;2022-12-18T20:29:28;4.10;;;2.55;;
75071;SDS011;63651;55.728;38.022;2022-12-18T20:34:30;4.45;;;2.88;;
75071;SDS011;63651;55.728;38.022;2022-12-18T20:39:31;4.25;;;3.17;;
75071;SDS011;63651;55.728;38.022;2022-12-18T20:44:32;4.00;;;2.58;;
75071;SDS011;63651;55.728;38.022;2022-12-18T20:49:33;5.25;;;2.92;;
75071;SDS011;63651;55.728;38.022;2022-12-18T20:54:34;4.22;;;3.15;;
75071;SDS011;63651;55.728;38.022;2022-12-18T20:59:35;3.85;;;2.60;;
75071;SDS011;63651;55.728;38.022;2022-12-18T21:04:36;3.95;;;2.60;;
75071;SDS011;63651;55.728;38.022;2022-12-18T21:09:37;6.00;;;3.58;;
75071;SDS011;63651;55.728;38.022;2022-12-18T21:14:39;4.53;;;2.97;;
75071;SDS011;63651;55.728;38.022;2022-12-18T21:19:40;5.75;;;3.15;;
75071;SDS011;63651;55.728;38.022;2022-12-18T21:24:41;5.13;;;3.25;;
75071;SDS011;63651;55.728;38.022;2022-12-18T21:29:42;4.93;;;3.00;;
75071;SDS011;63651;55.728;38.022;2022-12-18T21:34:43;5.00;;;3.33;;
75071;SDS011;63651;55.728;38.022;2022-12-18T21:39:45;5.72;;;3.83;;
75071;SDS011;63651;55.728;38.022;2022-12-18T21:44:46;5.57;;;3.45;;
75071;SDS011;63651;55.728;38.022;2022-12-18T21:49:49;7.35;;;4.70;;
75071;SDS011;63651;55.728;38.022;2022-12-18T21:54:52;6.65;;;3.63;;
75071;SDS011;63651;55.728;38.022;2022-12-18T21:59:53;5.43;;;3.60;;
75071;SDS011;63651;55.728;38.022;2022-12-18T22:04:54;6.53;;;3.90;;
75071;SDS011;63651;55.728;38.022;2022-12-18T22:09:55;6.45;;;4.05;;
75071;SDS011;63651;55.728;38.022;2022-12-18T22:14:56;7.30;;;4.40;;
75071;SDS011;63651;55.728;38.022;2022-12-18T22:19:57;6.00;;;3.95;;
75071;SDS011;63651;55.728;38.022;2022-12-18T22:24:58;7.97;;;4.35;;
75071;SDS011;63651;55.728;38.022;2022-12-18T22:29:59;6.22;;;4.20;;
75071;SDS011;63651;55.728;38.022;2022-12-18T22:35:04;7.65;;;4.57;;
75071;SDS011;63651;55.728;38.022;2022-12-18T22:40:06;7.20;;;4.35;;
75071;SDS011;63651;55.728;38.022;2022-12-18T22:45:10;6.88;;;4.22;;
75071;SDS011;63651;55.728;38.022;2022-12-18T22:50:11;6.38;;;4.25;;
75071;SDS011;63651;55.728;38.022;2022-12-18T22:55:13;7.55;;;4.22;;
75071;SDS011;63651;55.728;38.022;2022-12-18T23:00:15;5.57;;;3.40;;
75071;SDS011;63651;55.728;38.022;2022-12-18T23:05:17;6.00;;;3.78;;
75071;SDS011;63651;55.728;38.022;2022-12-18T23:10:18;6.68;;;3.90;;
75071;SDS011;63651;55.728;38.022;2022-12-18T23:15:19;6.53;;;3.67;;
75071;SDS011;63651;55.728;38.022;2022-12-18T23:20:20;6.40;;;3.75;;
75071;SDS011;63651;55.728;38.022;2022-12-18T23:25:21;5.00;;;3.33;;
75071;SDS011;63651;55.728;38.022;2022-12-18T23:30:22;5.55;;;3.53;;
75071;SDS011;63651;55.728;38.022;2022-12-18T23:35:23;5.35;;;3.70;;
75071;SDS011;63651;55.728;38.022;2022-12-18T23:40:25;5.65;;;4.00;;
75071;SDS011;63651;55.728;38.022;2022-12-18T23:45:26;5.60;;;3.72;;
75071;SDS011;63651;55.728;38.022;2022-12-18T23:50:27;5.18;;;3.25;;
75071;SDS011;63651;55.728;38.022;2022-12-18T23:55:28;4.90;;;3.38;;
